Time;durP1;ratioP1;P1;durP2;ratioP2;P2;SDS_P1;SDS_P2;PMS_P1;PMS_P2;Temp;Humidity;BMP_temperature;BMP_pressure;BME280_temperature;BME280_humidity;BME280_pressure;Samples;Min_cycle;Max_cycle;Signal;HPM_P1;HPM_P2
2022/03/22 00:00:49;;;;;;;15.32;7.63;;;;;;;1.42;64.75;100184.09;5030493;28;20117;-74
2022/03/22 00:03:15;;;;;;;18.20;7.88;;;;;;;1.52;64.96;100197.63;5027981;28;20359;-74
2022/03/22 00:05:42;;;;;;;21.85;8.70;;;;;;;1.72;64.40;100201.50;5046365;28;20029;-74
2022/03/22 00:08:09;;;;;;;16.38;8.05;;;;;;;1.69;63.77;100201.72;5043672;28;20026;-73
2022/03/22 00:10:36;;;;;;;17.58;8.52;;;;;;;1.58;64.14;100205.16;5047623;28;20017;-73
2022/03/22 00:13:03;;;;;;;16.58;7.95;;;;;;;1.56;64.44;100193.75;5043007;28;20021;-74
2022/03/22 00:15:29;;;;;;;16.15;7.40;;;;;;;1.54;63.60;100196.53;5044057;28;20017;-74
2022/03/22 00:17:54;;;;;;;15.70;7.97;;;;;;;1.52;64.36;100195.81;5046248;28;20489;-74
2022/03/22 00:20:19;;;;;;;13.35;7.53;;;;;;;1.39;64.12;100172.78;5044858;28;20049;-77
2022/03/22 00:22:45;;;;;;;15.10;7.43;;;;;;;1.25;63.48;100155.97;5041020;28;20029;-74
2022/03/22 00:25:11;;;;;;;12.88;7.20;;;;;;;1.17;64.70;100162.81;5030128;28;20367;-74
2022/03/22 00:27:52;;;;;;;12.75;7.05;;;;;;;1.38;65.13;100203.94;5035162;28;20032;-73
2022/03/22 00:30:27;;;;;;;14.25;6.90;;;;;;;1.59;64.70;100174.84;5024717;28;20018;-73
2022/03/22 00:32:56;;;;;;;16.48;7.15;;;;;;;1.75;64.10;100198.59;5031991;28;20060;-74
2022/03/22 00:35:26;;;;;;;13.93;7.88;;;;;;;1.93;63.28;100191.91;5030686;28;20026;-75
2022/03/22 00:37:53;;;;;;;18.92;7.50;;;;;;;1.93;63.71;100199.91;5032140;28;20038;-74
2022/03/22 00:40:19;;;;;;;15.43;8.98;;;;;;;1.93;64.09;100204.41;5033390;28;20036;-74
2022/03/22 00:42:46;;;;;;;17.83;9.35;;;;;;;1.51;64.08;100147.91;5030676;28;20411;-74
2022/03/22 00:45:16;;;;;;;18.27;9.52;;;;;;;1.70;64.69;100192.75;5032281;28;20022;-74
2022/03/22 00:47:45;;;;;;;18.38;9.35;;;;;;;1.61;64.93;100196.94;5038788;28;20042;-74
2022/03/22 00:50:16;;;;;;;27.92;11.88;;;;;;;1.41;65.66;100165.53;5026018;28;20017;-76
2022/03/22 00:52:42;;;;;;;20.38;11.73;;;;;;;1.44;65.64;100184.84;5031057;28;20033;-74
2022/03/22 00:55:08;;;;;;;19.73;11.20;;;;;;;1.35;65.95;100164.16;5029443;28;20021;-74
2022/03/22 00:57:34;;;;;;;17.85;9.77;;;;;;;1.60;65.52;100186.38;5037480;28;20061;-74
2022/03/22 01:00:05;;;;;;;19.40;10.38;;;;;;;1.59;66.02;100195.34;5045436;28;20025;-73
2022/03/22 01:02:39;;;;;;;18.25;9.95;;;;;;;1.24;66.42;100153.44;5044416;28;20092;-74
2022/03/22 01:05:07;;;;;;;21.02;10.40;;;;;;;1.25;66.98;100171.13;5044267;28;20056;-76
2022/03/22 01:07:33;;;;;;;18.98;10.20;;;;;;;1.21;67.55;100188.31;5045248;28;20056;-75
2022/03/22 01:10:05;;;;;;;19.38;10.10;;;;;;;1.04;68.27;100186.81;5042627;28;20385;-77
2022/03/22 01:12:32;;;;;;;17.05;9.60;;;;;;;0.79;69.66;100145.09;5042718;28;20041;-74
2022/03/22 01:14:58;;;;;;;18.45;9.60;;;;;;;0.99;69.97;100176.50;5045594;28;20021;-74
2022/03/22 01:17:23;;;;;;;26.33;9.63;;;;;;;1.09;70.12;100184.69;5046156;28;20017;-76
2022/03/22 01:19:48;;;;;;;14.50;8.70;;;;;;;0.76;70.80;100155.94;5046954;28;20457;-75
2022/03/22 01:22:16;;;;;;;17.13;9.00;;;;;;;0.61;71.91;100148.06;5042020;28;20033;-74
2022/03/22 01:24:42;;;;;;;15.25;8.90;;;;;;;0.91;72.40;100184.16;5029445;28;20140;-74
2022/03/22 01:27:08;;;;;;;13.85;8.00;;;;;;;0.69;72.13;100176.00;5027581;28;20104;-74
2022/03/22 01:29:33;;;;;;;20.45;9.57;;;;;;;0.49;73.06;100154.25;5026379;28;20432;-75
2022/03/22 01:31:59;;;;;;;17.73;9.50;;;;;;;0.60;73.11;100174.81;5030907;28;20060;-74
2022/03/22 01:34:25;;;;;;;17.20;10.02;;;;;;;0.57;73.15;100181.19;5030814;28;20116;-74
2022/03/22 01:36:50;;;;;;;16.88;9.50;;;;;;;0.38;73.58;100151.47;5033638;28;20148;-74
2022/03/22 01:39:16;;;;;;;21.17;9.60;;;;;;;0.55;73.57;100183.13;5030892;28;20021;-74
2022/03/22 01:41:41;;;;;;;15.73;8.95;;;;;;;0.18;72.30;100147.50;5026922;28;20037;-76
2022/03/22 01:44:07;;;;;;;19.42;9.25;;;;;;;0.35;72.88;100159.69;5027060;28;20044;-74
2022/03/22 01:46:35;;;;;;;18.67;8.98;;;;;;;0.31;73.12;100161.66;5029322;28;20048;-74
2022/03/22 01:49:01;;;;;;;14.27;7.18;;;;;;;0.15;72.64;100156.53;5029464;28;20051;-75
2022/03/22 01:51:27;;;;;;;17.42;9.50;;;;;;;0.13;73.18;100142.50;5023093;28;20126;-75
2022/03/22 01:53:54;;;;;;;22.67;9.50;;;;;;;0.20;73.52;100145.59;5028183;28;20033;-75
2022/03/22 01:56:19;;;;;;;20.92;10.52;;;;;;;0.16;73.68;100154.75;5030165;28;20028;-75
2022/03/22 01:58:45;;;;;;;17.73;9.38;;;;;;;-0.14;74.80;100121.25;5034114;28;20030;-75
2022/03/22 02:06:39;;;;;;;16.58;8.63;;;;;;;-0.07;76.09;100151.81;5029118;28;20522;-74
2022/03/22 02:09:05;;;;;;;17.58;9.63;;;;;;;-0.24;76.86;100139.66;5034769;28;20079;-75
2022/03/22 02:11:31;;;;;;;20.90;10.77;;;;;;;-0.50;77.25;100114.78;5030207;28;20511;-75
2022/03/22 02:13:56;;;;;;;21.52;11.10;;;;;;;-0.34;78.20;100135.03;5031839;28;20029;-74
2022/03/22 02:16:22;;;;;;;18.98;10.55;;;;;;;-0.27;78.03;100160.25;5025317;28;20044;-74
2022/03/22 02:18:50;;;;;;;22.50;11.63;;;;;;;-0.51;78.03;100123.69;5030940;28;20505;-76
2022/03/22 02:21:18;;;;;;;24.63;10.63;;;;;;;-0.63;77.97;100128.94;5028039;28;20049;-74
2022/03/22 02:23:55;;;;;;;24.58;12.38;;;;;;;-0.41;79.02;100158.50;5027712;28;20127;-74
2022/03/22 02:26:22;;;;;;;20.80;10.80;;;;;;;-0.43;78.39;100155.09;5029971;28;20026;-74
2022/03/22 02:28:53;;;;;;;20.27;10.05;;;;;;;-0.46;78.69;100152.66;5025644;28;20033;-74
2022/03/22 02:31:19;;;;;;;19.02;9.57;;;;;;;-0.52;78.29;100159.22;5029652;28;20030;-74
2022/03/22 02:33:45;;;;;;;21.30;9.90;;;;;;;-0.56;78.46;100154.19;5027516;28;20021;-74
2022/03/22 02:36:11;;;;;;;20.20;9.95;;;;;;;-0.56;77.98;100148.88;5035998;28;20021;-74
2022/03/22 02:38:36;;;;;;;17.33;9.32;;;;;;;-0.82;78.15;100130.13;5039922;28;20414;-75
2022/03/22 02:41:02;;;;;;;19.73;9.48;;;;;;;-0.82;77.31;100124.81;5049434;28;20034;-76
2022/03/22 02:43:27;;;;;;;20.48;8.95;;;;;;;-0.97;77.55;100104.53;5039510;28;20051;-76
2022/03/22 02:45:53;;;;;;;20.85;9.05;;;;;;;-0.83;77.68;100127.59;5039840;28;20037;-75
2022/03/22 02:48:18;;;;;;;17.02;9.07;;;;;;;-0.90;77.11;100135.94;5048663;28;20022;-77
2022/03/22 02:50:43;;;;;;;19.58;8.85;;;;;;;-1.10;77.07;100115.13;5050003;28;20060;-75
2022/03/22 02:53:09;;;;;;;20.27;8.48;;;;;;;-0.77;76.25;100156.41;5045389;28;20104;-74
2022/03/22 02:55:34;;;;;;;16.23;8.27;;;;;;;-0.86;76.29;100123.34;5042553;28;20018;-74
2022/03/22 02:57:59;;;;;;;18.17;8.35;;;;;;;-0.77;76.75;100156.41;5040568;28;20068;-74
2022/03/22 03:00:26;;;;;;;16.73;8.30;;;;;;;-0.79;76.78;100140.56;5047242;28;20037;-76
2022/03/22 03:02:53;;;;;;;15.73;7.85;;;;;;;-0.87;77.12;100140.19;5050715;28;20460;-75
2022/03/22 03:05:20;;;;;;;17.63;8.85;;;;;;;-1.01;77.66;100126.97;5045301;28;20034;-75
2022/03/22 03:07:46;;;;;;;17.67;8.25;;;;;;;-1.02;77.61;100107.53;5043615;28;20025;-75
2022/03/22 03:10:12;;;;;;;17.25;8.02;;;;;;;-0.50;77.14;100152.00;5041347;28;20044;-74
2022/03/22 03:12:38;;;;;;;16.27;8.20;;;;;;;-0.71;76.59;100138.28;5044752;28;20041;-74
2022/03/22 03:15:05;;;;;;;17.02;8.82;;;;;;;-0.55;77.66;100153.22;5034640;28;20044;-75
2022/03/22 03:17:30;;;;;;;17.67;9.63;;;;;;;-0.58;77.90;100148.13;5029444;28;20201;-73
2022/03/22 03:19:55;;;;;;;20.77;9.55;;;;;;;-0.71;78.96;100117.03;5032416;28;20116;-75
2022/03/22 03:22:21;;;;;;;14.75;8.45;;;;;;;-0.92;77.91;100108.63;5026005;28;20479;-76
2022/03/22 03:24:46;;;;;;;16.05;7.53;;;;;;;-0.58;78.26;100167.56;5025076;28;20056;-76
2022/03/22 03:27:12;;;;;;;18.98;8.30;;;;;;;-0.69;78.15;100168.25;5032889;28;20040;-76
2022/03/22 03:29:37;;;;;;;14.98;7.88;;;;;;;-0.99;77.87;100154.28;5029805;28;20026;-76
2022/03/22 03:32:03;;;;;;;17.23;8.45;;;;;;;-0.87;77.75;100174.75;5024249;28;20028;-76
2022/03/22 03:34:28;;;;;;;18.95;8.63;;;;;;;-1.05;77.78;100162.63;5026733;28;20040;-76
2022/03/22 03:36:53;;;;;;;16.13;8.85;;;;;;;-1.23;78.75;100144.25;5030391;28;20036;-76
2022/03/22 03:39:19;;;;;;;17.20;8.57;;;;;;;-1.09;79.73;100169.09;5028479;28;20030;-76
2022/03/22 03:41:53;;;;;;;13.93;7.82;;;;;;;-0.92;79.08;100168.88;5034201;28;20037;-75
2022/03/22 03:47:04;;;;;;;15.38;8.52;;;;;;;-1.16;79.30;100152.66;5031447;28;20063;-76
2022/03/22 03:49:30;;;;;;;18.85;8.82;;;;;;;-1.18;78.52;100154.56;5035252;28;20525;-75
2022/03/22 03:51:55;;;;;;;17.42;8.77;;;;;;;-1.23;78.94;100156.66;5025534;28;20116;-76
2022/03/22 03:54:20;;;;;;;17.50;9.07;;;;;;;-1.02;79.16;100176.59;5032539;28;20498;-76
2022/03/22 03:56:46;;;;;;;17.38;8.10;;;;;;;-1.24;79.41;100162.91;5033064;28;20025;-76
2022/03/22 03:59:11;;;;;;;16.00;7.72;;;;;;;-1.29;79.37;100179.13;5030923;28;20034;-76
2022/03/22 04:01:37;;;;;;;17.63;8.05;;;;;;;-1.44;78.64;100169.44;5029190;28;20036;-76
2022/03/22 04:04:03;;;;;;;20.33;8.85;;;;;;;-1.38;80.01;100179.69;5025639;28;20036;-76
2022/03/22 04:06:29;;;;;;;18.48;8.65;;;;;;;-1.23;80.51;100178.75;5028094;28;20068;-75
2022/03/22 04:08:55;;;;;;;17.73;8.65;;;;;;;-1.06;80.07;100168.91;5027774;28;20107;-77
2022/03/22 04:11:20;;;;;;;17.90;8.48;;;;;;;-0.89;79.71;100171.34;5026302;28;20498;-76
2022/03/22 04:13:46;;;;;;;16.52;8.63;;;;;;;-0.91;79.82;100178.56;5027373;28;20034;-76
2022/03/22 04:16:11;;;;;;;15.98;8.88;;;;;;;-1.17;80.33;100161.59;5031503;28;20029;-76
2022/03/22 04:18:36;;;;;;;18.38;8.75;;;;;;;-1.39;79.57;100148.78;5030296;28;20026;-76
2022/03/22 04:21:02;;;;;;;18.48;8.65;;;;;;;-1.32;79.47;100179.31;5024772;28;20143;-75
2022/03/22 04:23:29;;;;;;;16.45;8.13;;;;;;;-1.33;80.12;100186.44;5032294;28;20029;-76
2022/03/22 04:25:55;;;;;;;17.30;8.75;;;;;;;-1.36;80.70;100185.78;5027531;28;22669;-75
2022/03/22 04:33:49;;;;;;;20.40;10.02;;;;;;;-1.32;81.83;100180.16;5031819;28;20060;-75
2022/03/22 04:36:14;;;;;;;19.55;10.65;;;;;;;-1.38;82.16;100196.47;5035655;28;20467;-75
2022/03/22 04:38:39;;;;;;;23.63;11.68;;;;;;;-1.36;83.10;100199.06;5027564;28;20109;-76
2022/03/22 04:41:06;;;;;;;20.42;10.00;;;;;;;-1.29;82.82;100208.31;5029421;28;20033;-76
2022/03/22 04:43:31;;;;;;;21.45;10.80;;;;;;;-1.27;83.73;100216.22;5026552;28;20076;-76
2022/03/22 04:45:56;;;;;;;18.52;9.65;;;;;;;-1.55;83.99;100167.44;5028346;28;20588;-76
2022/03/22 04:48:21;;;;;;;26.33;10.95;;;;;;;-1.26;83.78;100194.84;5025568;28;20109;-76
2022/03/22 04:50:47;;;;;;;19.80;10.90;;;;;;;-1.07;83.28;100196.38;5035739;28;20029;-76
2022/03/22 04:58:40;;;;;;;20.80;9.38;;;;;;;-1.37;82.88;100195.50;5023338;28;20119;-74
2022/03/22 05:01:06;;;;;;;21.25;9.40;;;;;;;-1.47;82.35;100204.97;5024638;28;20041;-74
2022/03/22 05:03:31;;;;;;;24.08;9.90;;;;;;;-1.48;83.68;100213.06;5038320;28;20025;-75
2022/03/22 05:08:41;;;;;;;20.13;9.70;;;;;;;-1.70;82.52;100200.19;5027992;28;20072;-72
2022/03/22 05:11:07;;;;;;;22.38;9.27;;;;;;;-1.78;83.11;100190.06;5026731;28;20049;-74
2022/03/22 05:13:32;;;;;;;23.77;10.02;;;;;;;-1.80;82.41;100199.91;5028743;28;20029;-74
2022/03/22 05:15:58;;;;;;;18.45;9.07;;;;;;;-1.81;82.33;100214.97;5022794;28;20080;-73
2022/03/22 05:18:23;;;;;;;18.02;8.23;;;;;;;-1.79;81.13;100197.13;5021935;28;20029;-74
2022/03/22 05:20:48;;;;;;;17.05;8.68;;;;;;;-1.93;81.03;100194.47;5031598;28;20048;-74
2022/03/22 05:23:15;;;;;;;20.98;9.57;;;;;;;-1.81;81.82;100235.31;5028619;28;20044;-73
2022/03/22 05:25:40;;;;;;;17.52;9.00;;;;;;;-1.99;81.92;100203.63;5026070;28;20026;-71
2022/03/22 05:28:05;;;;;;;18.83;8.48;;;;;;;-1.81;82.39;100236.19;5031643;28;20028;-70
2022/03/22 05:30:31;;;;;;;18.95;9.23;;;;;;;-1.86;82.72;100211.72;5038256;28;20025;-70
2022/03/22 05:32:57;;;;;;;20.80;9.93;;;;;;;-1.73;83.00;100233.06;5035960;28;20021;-72
2022/03/22 05:35:23;;;;;;;22.05;9.70;;;;;;;-1.76;82.27;100222.63;5036863;28;20136;-76
2022/03/22 05:37:49;;;;;;;18.48;9.32;;;;;;;-1.69;82.62;100216.03;5030459;28;20091;-74
2022/03/22 05:40:17;;;;;;;17.35;9.55;;;;;;;-1.61;82.79;100211.13;5031596;28;20032;-77
2022/03/22 05:42:42;;;;;;;23.10;9.85;;;;;;;-1.29;82.34;100239.34;5023066;28;21604;-75
2022/03/22 05:45:09;;;;;;;17.65;8.77;;;;;;;-1.24;82.25;100243.41;5025613;28;20022;-75
2022/03/22 05:47:34;;;;;;;17.85;9.82;;;;;;;-1.03;81.11;100238.59;5022676;28;20536;-70
2022/03/22 05:50:00;;;;;;;19.25;9.27;;;;;;;-1.03;80.74;100240.41;5024029;28;20026;-69
2022/03/22 05:52:25;;;;;;;17.80;9.77;;;;;;;-0.82;80.74;100222.28;5024718;28;20060;-76
2022/03/22 05:54:50;;;;;;;18.45;9.18;;;;;;;0.69;75.66;100231.94;5029140;28;20053;-79
2022/03/22 05:57:16;;;;;;;15.60;7.75;;;;;;;2.33;67.09;100201.41;5023452;28;20026;-79
2022/03/22 05:59:41;;;;;;;18.13;8.50;;;;;;;3.55;62.05;100187.41;5024357;28;20102;-79
2022/03/22 06:02:07;;;;;;;21.33;9.25;;;;;;;4.70;57.81;100204.63;5031706;28;20440;-79
2022/03/22 06:04:32;;;;;;;16.95;8.75;;;;;;;5.42;54.79;100161.63;5032641;28;20028;-79
2022/03/22 06:06:58;;;;;;;15.98;9.23;;;;;;;6.28;52.54;100226.38;5028239;28;20030;-79
2022/03/22 06:09:23;;;;;;;16.45;8.93;;;;;;;6.84;51.90;100206.00;5015139;28;20518;-75
2022/03/22 06:11:49;;;;;;;18.55;8.82;;;;;;;7.33;48.41;100211.22;5026963;28;20029;-71
2022/03/22 06:14:14;;;;;;;17.20;8.38;;;;;;;8.21;46.79;100215.09;5032895;28;20033;-71
2022/03/22 06:16:39;;;;;;;14.00;8.45;;;;;;;8.51;45.78;100196.84;5034499;28;20033;-78
2022/03/22 06:19:05;;;;;;;16.65;9.60;;;;;;;8.99;44.36;100184.75;5030838;28;20033;-77
2022/03/22 06:21:30;;;;;;;16.75;9.40;;;;;;;9.75;43.22;100189.31;5030655;28;20036;-78
2022/03/22 06:23:55;;;;;;;15.02;9.27;;;;;;;9.82;41.98;100133.59;5024609;28;20564;-75
2022/03/22 06:26:21;;;;;;;17.83;10.02;;;;;;;10.49;41.11;100194.91;5032324;28;20018;-71
2022/03/22 06:28:46;;;;;;;17.67;9.45;;;;;;;10.74;40.40;100183.06;5031355;28;20029;-72
2022/03/22 06:31:12;;;;;;;15.82;9.20;;;;;;;11.48;39.53;100180.16;5029325;28;20033;-73
2022/03/22 06:33:38;;;;;;;14.60;9.27;;;;;;;12.02;38.42;100193.81;5033132;28;20441;-72
2022/03/22 06:36:05;;;;;;;17.17;9.25;;;;;;;12.48;37.28;100212.00;5026277;28;20068;-68
2022/03/22 06:38:32;;;;;;;19.83;11.75;;;;;;;12.93;36.47;100211.09;5028276;28;20025;-66
2022/03/22 06:40:58;;;;;;;19.27;10.73;;;;;;;12.78;36.49;100212.94;5031072;28;20025;-66
2022/03/22 06:43:23;;;;;;;22.70;10.85;;;;;;;11.37;38.06;100216.63;5025855;28;20065;-66
2022/03/22 06:45:49;;;;;;;16.83;10.65;;;;;;;11.81;38.31;100209.81;5023736;28;20478;-66
2022/03/22 06:48:17;;;;;;;17.70;10.43;;;;;;;12.23;38.05;100219.47;5028914;28;20113;-66
2022/03/22 06:50:44;;;;;;;16.73;9.60;;;;;;;13.51;35.41;100208.66;5027944;28;20073;-67
2022/03/22 06:53:10;;;;;;;15.82;10.05;;;;;;;12.83;36.54;100215.94;5029014;28;20391;-66
2022/03/22 06:55:36;;;;;;;18.50;10.77;;;;;;;12.99;36.19;100222.25;5031916;28;20025;-68
2022/03/22 06:58:03;;;;;;;23.17;10.57;;;;;;;13.76;34.88;100216.53;5026529;28;20081;-67
2022/03/22 07:00:31;;;;;;;20.42;10.07;;;;;;;14.33;34.07;100214.88;5023088;28;20027;-67
2022/03/22 07:02:57;;;;;;;16.23;10.07;;;;;;;14.39;33.61;100209.53;5029250;28;20029;-65
2022/03/22 07:05:22;;;;;;;18.88;10.95;;;;;;;14.37;34.16;100221.63;5022525;28;20033;-67
2022/03/22 07:07:47;;;;;;;16.48;11.32;;;;;;;14.29;34.42;100232.66;5025669;28;20037;-69
2022/03/22 07:10:15;;;;;;;16.13;10.55;;;;;;;13.95;34.56;100224.09;5029191;28;20022;-71
2022/03/22 07:12:48;;;;;;;17.02;10.88;;;;;;;15.76;33.26;100214.59;5028761;28;20071;-71
2022/03/22 07:15:13;;;;;;;19.38;11.00;;;;;;;17.00;30.32;100193.44;5031059;28;20040;-68
2022/03/22 07:17:40;;;;;;;17.63;11.23;;;;;;;16.83;30.07;100218.47;5028221;28;20029;-68
2022/03/22 07:20:06;;;;;;;16.00;10.73;;;;;;;17.47;29.38;100207.91;5024349;28;20022;-72
2022/03/22 07:22:32;;;;;;;18.33;10.98;;;;;;;16.69;30.19;100216.78;5026041;28;20442;-69
2022/03/22 07:24:58;;;;;;;16.15;10.73;;;;;;;18.08;29.12;100226.69;5026470;28;20117;-71
2022/03/22 07:27:23;;;;;;;20.10;10.90;;;;;;;19.26;27.51;100222.53;5027237;28;20025;-67
2022/03/22 07:29:51;;;;;;;17.17;10.70;;;;;;;20.14;26.21;100207.59;5032610;28;20067;-73
2022/03/22 07:32:17;;;;;;;17.48;10.68;;;;;;;20.58;25.40;100209.13;5032764;28;20104;-72
2022/03/22 07:34:43;;;;;;;19.73;11.85;;;;;;;20.23;25.69;100189.75;5029368;28;20115;-68
2022/03/22 07:37:08;;;;;;;19.88;11.23;;;;;;;19.73;26.07;100205.59;5031637;28;20018;-68
2022/03/22 07:39:34;;;;;;;18.52;10.80;;;;;;;20.51;25.20;100204.75;5029662;28;20017;-73
2022/03/22 07:42:00;;;;;;;15.25;10.85;;;;;;;20.87;24.65;100212.06;5029280;28;20017;-70
2022/03/22 07:44:27;;;;;;;17.23;10.68;;;;;;;21.93;23.96;100209.31;5030031;28;20025;-74
2022/03/22 07:46:52;;;;;;;16.95;11.68;;;;;;;22.06;24.04;100208.16;5028385;28;20030;-72
2022/03/22 07:54:56;;;;;;;17.00;10.98;;;;;;;22.39;22.87;100207.47;5031530;28;20040;-72
2022/03/22 07:57:22;;;;;;;14.80;10.80;;;;;;;22.38;23.10;100218.78;5022447;28;20033;-69
2022/03/22 07:59:47;;;;;;;14.80;10.90;;;;;;;22.43;22.98;100196.81;5023197;28;20033;-69
2022/03/22 08:02:12;;;;;;;15.10;10.90;;;;;;;22.47;22.86;100223.63;5030722;28;20037;-68
2022/03/22 08:04:37;;;;;;;14.25;9.98;;;;;;;23.29;22.34;100219.56;5026249;28;20021;-68
2022/03/22 08:07:03;;;;;;;15.07;10.50;;;;;;;23.37;22.01;100197.03;5025097;28;20059;-69
2022/03/22 08:09:28;;;;;;;14.70;10.55;;;;;;;23.45;21.31;100215.09;5030874;28;20537;-70
2022/03/22 08:11:54;;;;;;;14.77;10.48;;;;;;;23.36;21.59;100222.94;5024434;28;20104;-67
2022/03/22 08:14:20;;;;;;;17.83;10.45;;;;;;;23.84;21.15;100224.25;5027264;28;20053;-70
2022/03/22 08:16:45;;;;;;;13.38;10.35;;;;;;;23.69;20.91;100212.94;5026641;28;20029;-71
2022/03/22 08:19:17;;;;;;;16.33;10.23;;;;;;;23.60;20.94;100219.97;5029286;28;20092;-70
2022/03/22 08:21:43;;;;;;;13.55;10.40;;;;;;;24.24;20.83;100220.28;5027802;28;20059;-68
2022/03/22 08:24:08;;;;;;;14.70;10.25;;;;;;;24.18;20.07;100218.56;5026421;28;20029;-68
2022/03/22 08:26:36;;;;;;;13.55;9.27;;;;;;;24.34;20.38;100211.28;5027646;28;20025;-72
2022/03/22 08:29:02;;;;;;;14.10;10.00;;;;;;;23.44;20.22;100209.81;5027752;28;20048;-70
2022/03/22 08:31:27;;;;;;;13.43;10.00;;;;;;;24.77;19.16;100217.00;5026192;28;20029;-70
2022/03/22 08:33:53;;;;;;;15.70;9.43;;;;;;;24.86;19.40;100204.31;5023632;28;20525;-72
2022/03/22 08:36:20;;;;;;;11.85;9.57;;;;;;;24.80;19.79;100213.69;5027257;28;20475;-73
2022/03/22 08:38:46;;;;;;;13.05;9.98;;;;;;;25.31;19.46;100219.69;5019402;28;20033;-72
2022/03/22 08:41:11;;;;;;;17.35;9.80;;;;;;;24.58;19.92;100225.66;5021615;28;20021;-68
2022/03/22 08:43:37;;;;;;;13.55;10.05;;;;;;;23.83;20.53;100224.47;5027971;28;20044;-68
2022/03/22 08:46:05;;;;;;;12.75;9.80;;;;;;;23.76;20.20;100224.69;5025903;28;20036;-68
2022/03/22 08:48:30;;;;;;;16.95;10.27;;;;;;;24.48;19.95;100222.81;5034923;28;20063;-66
2022/03/22 08:50:55;;;;;;;14.57;10.45;;;;;;;24.19;20.29;100209.16;5025097;28;20089;-66
2022/03/22 08:53:21;;;;;;;14.55;10.32;;;;;;;23.83;20.30;100203.19;5026292;28;20129;-66
2022/03/22 08:55:47;;;;;;;13.07;9.15;;;;;;;25.20;19.54;100209.63;5023694;28;20429;-67
2022/03/22 08:58:14;;;;;;;16.65;10.07;;;;;;;24.29;20.60;100202.94;5022134;28;20057;-64
2022/03/22 09:00:40;;;;;;;11.70;9.48;;;;;;;24.90;19.23;100186.94;5015959;28;21026;-65
2022/03/22 09:03:06;;;;;;;12.80;9.10;;;;;;;26.19;19.60;100206.00;5012588;28;20026;-66
2022/03/22 09:08:16;;;;;;;18.17;9.65;;;;;;;25.46;19.06;100186.50;5020169;28;20059;-66
2022/03/22 09:10:41;;;;;;;14.73;9.63;;;;;;;25.48;19.05;100187.09;5024614;28;20104;-65
2022/03/22 09:13:08;;;;;;;13.63;8.77;;;;;;;26.94;18.11;100202.03;5025466;28;20035;-66
2022/03/22 09:15:38;;;;;;;19.23;9.35;;;;;;;26.23;18.40;100195.22;5025121;28;20033;-66
2022/03/22 09:18:04;;;;;;;13.25;8.75;;;;;;;26.65;18.31;100208.09;5026116;28;20052;-67
2022/03/22 09:20:32;;;;;;;12.85;8.93;;;;;;;27.29;17.92;100198.41;5056744;22;20120;-70
2022/03/22 09:23:00;;;;;;;12.82;8.90;;;;;;;26.23;18.74;100207.16;5038572;28;20554;-71
2022/03/22 09:25:27;;;;;;;12.68;8.55;;;;;;;24.85;18.92;100206.28;5052671;28;20033;-71
2022/03/22 09:27:53;;;;;;;14.40;8.05;;;;;;;25.48;18.58;100200.94;5040128;28;20025;-71
2022/03/22 09:30:20;;;;;;;13.18;9.25;;;;;;;25.28;18.92;100203.56;5038866;28;20026;-71
2022/03/22 09:32:46;;;;;;;11.23;8.45;;;;;;;26.87;16.81;100189.22;5025918;28;20029;-71
2022/03/22 09:35:14;;;;;;;11.90;8.98;;;;;;;24.83;18.52;100185.47;5028792;28;20108;-71
2022/03/22 09:37:43;;;;;;;15.55;8.52;;;;;;;26.16;17.36;100192.69;5028195;28;20032;-71
2022/03/22 09:40:10;;;;;;;15.70;9.07;;;;;;;25.50;17.26;100200.69;5028942;28;20029;-72
2022/03/22 09:42:42;;;;;;;11.07;8.77;;;;;;;24.68;17.97;100184.25;5029468;28;20072;-71
2022/03/22 09:45:09;;;;;;;11.32;8.68;;;;;;;25.93;17.91;100190.38;5027415;28;20027;-71
2022/03/22 09:47:36;;;;;;;11.70;8.10;;;;;;;26.61;17.66;100195.88;5028176;28;20041;-71
2022/03/22 09:50:08;;;;;;;14.57;9.07;;;;;;;26.00;17.59;100185.44;5026276;28;20021;-70
2022/03/22 09:52:38;;;;;;;12.93;9.25;;;;;;;25.70;18.65;100188.88;5021342;28;20075;-70
2022/03/22 09:55:05;;;;;;;13.23;8.95;;;;;;;25.99;17.18;100186.53;5023104;28;20037;-71
2022/03/22 09:57:31;;;;;;;11.55;8.63;;;;;;;27.51;17.19;100176.69;5022115;28;20036;-72
2022/03/22 09:59:56;;;;;;;11.93;9.20;;;;;;;27.85;16.38;100169.63;5024963;28;20029;-72
2022/03/22 10:02:32;;;;;;;10.88;8.63;;;;;;;28.88;14.87;100175.44;5026466;28;20061;-71
2022/03/22 10:04:58;;;;;;;15.05;9.25;;;;;;;28.12;15.55;100175.63;5021802;28;20017;-71
2022/03/22 10:07:24;;;;;;;10.68;8.88;;;;;;;26.21;17.18;100181.63;5027383;28;20021;-71
2022/03/22 10:09:54;;;;;;;12.38;8.95;;;;;;;27.48;17.06;100177.25;5023010;28;20556;-71
2022/03/22 10:12:27;;;;;;;10.23;8.35;;;;;;;27.94;16.58;100173.50;5026864;28;20026;-72
2022/03/22 10:14:53;;;;;;;11.48;9.13;;;;;;;28.50;15.80;100167.63;5023903;28;20434;-72
2022/03/22 10:17:18;;;;;;;14.73;8.68;;;;;;;28.94;15.33;100165.88;5027319;28;20025;-72
2022/03/22 10:19:50;;;;;;;11.95;8.73;;;;;;;29.63;14.49;100150.72;5026762;28;20029;-72
2022/03/22 10:22:21;;;;;;;12.25;8.40;;;;;;;29.86;14.96;100159.38;5025929;28;20033;-72
2022/03/22 10:24:49;;;;;;;10.60;8.38;;;;;;;29.60;14.73;100148.47;5020097;28;20068;-72
2022/03/22 10:27:27;;;;;;;9.65;8.15;;;;;;;30.30;15.12;100159.06;5026380;28;20390;-72
2022/03/22 10:29:57;;;;;;;13.73;8.23;;;;;;;29.57;15.57;100140.72;5024337;28;20025;-71
2022/03/22 10:32:51;;;;;;;14.23;9.18;;;;;;;29.27;15.85;100147.50;5025864;28;20072;-72
2022/03/22 10:35:20;;;;;;;11.52;8.55;;;;;;;28.92;15.25;100141.09;5026056;28;20475;-71
2022/03/22 10:37:47;;;;;;;11.02;8.43;;;;;;;27.98;15.70;100146.75;5018311;28;20052;-71
2022/03/22 10:40:29;;;;;;;9.83;7.90;;;;;;;28.57;15.82;100151.41;5020528;28;20451;-71
2022/03/22 10:42:58;;;;;;;12.93;8.80;;;;;;;27.74;15.88;100147.38;5023230;28;20108;-72
2022/03/22 10:45:29;;;;;;;11.38;8.68;;;;;;;28.11;15.84;100148.94;5023624;28;20041;-71
2022/03/22 10:47:56;;;;;;;11.98;8.43;;;;;;;29.63;16.12;100142.34;5026018;28;20414;-71
2022/03/22 10:50:22;;;;;;;15.80;8.70;;;;;;;29.26;15.76;100132.69;5027104;28;20493;-71
2022/03/22 10:52:59;;;;;;;13.52;8.00;;;;;;;28.07;16.72;100136.69;5027696;28;20025;-71
2022/03/22 10:55:27;;;;;;;11.55;8.45;;;;;;;28.51;16.72;100133.09;5037857;28;20053;-71
2022/03/22 10:57:55;;;;;;;12.25;9.02;;;;;;;28.16;16.56;100139.69;5025004;28;20037;-73
2022/03/22 11:00:21;;;;;;;11.85;8.82;;;;;;;27.93;16.92;100142.06;5025133;28;20018;-77
2022/03/22 11:02:52;;;;;;;10.32;8.48;;;;;;;29.13;16.61;100146.50;5023382;28;20033;-71
2022/03/22 11:05:19;;;;;;;13.02;8.85;;;;;;;28.82;15.95;100135.63;5022767;28;20064;-70
2022/03/22 11:07:46;;;;;;;11.60;8.57;;;;;;;28.46;15.79;100138.69;5014588;28;20104;-71
2022/03/22 11:10:12;;;;;;;12.35;8.85;;;;;;;27.81;15.96;100132.38;5015020;28;20371;-73
2022/03/22 11:12:38;;;;;;;12.48;8.73;;;;;;;28.08;16.20;100130.00;5018291;28;20029;-71
2022/03/22 11:15:05;;;;;;;10.80;8.95;;;;;;;28.22;16.86;100124.66;5026206;28;20040;-72
2022/03/22 11:17:35;;;;;;;11.25;8.63;;;;;;;28.46;16.42;100133.13;5027778;28;20108;-73
2022/03/22 11:20:04;;;;;;;12.57;8.13;;;;;;;27.75;16.72;100134.34;5026815;28;20562;-71
2022/03/22 11:22:30;;;;;;;8.80;7.90;;;;;;;29.03;16.59;100122.34;5020287;28;20162;-71
2022/03/22 11:25:34;;;;;;;9.95;8.38;;;;;;;29.99;15.25;100122.34;5025282;28;20025;-71
2022/03/22 11:28:05;;;;;;;12.60;9.25;;;;;;;29.48;15.49;100118.25;5024945;28;20048;-71
2022/03/22 11:30:31;;;;;;;12.82;9.52;;;;;;;27.58;16.34;100122.72;5037940;28;20332;-71
2022/03/22 11:35:49;;;;;;;10.77;8.85;;;;;;;29.55;15.84;100111.47;5022224;28;20068;-72
2022/03/22 11:38:41;;;;;;;12.93;8.25;;;;;;;28.97;15.64;100115.97;5026856;28;20116;-72
2022/03/22 11:44:27;;;;;;;12.00;8.48;;;;;;;29.30;16.01;100102.28;5022491;28;20051;-71
2022/03/22 11:47:02;;;;;;;12.55;9.10;;;;;;;30.01;15.68;100102.53;5024302;28;20037;-71
2022/03/22 11:49:28;;;;;;;13.73;9.68;;;;;;;28.58;16.32;100102.97;5022045;28;20088;-71
2022/03/22 11:51:53;;;;;;;13.98;9.38;;;;;;;26.45;17.39;100114.50;5018817;28;20037;-72